Time;durP1;ratioP1;P1;durP2;ratioP2;P2;SDS_P1;SDS_P2;PMS_P1;PMS_P2;Temp;Humidity;BMP_temperature;BMP_pressure;BME280_temperature;BME280_humidity;BME280_pressure;Samples;Min_cycle;Max_cycle;Signal;HPM_P1;HPM_P2
2022/07/26 00:00:55;;;;;;;4.05;1.20;;;;;;;21.79;93.88;100245.16;4993042;28;20034;-68
2022/07/26 00:03:23;;;;;;;1.80;1.02;;;;;;;21.87;93.98;100252.00;4994465;28;20041;-68
2022/07/26 00:05:51;;;;;;;2.00;1.38;;;;;;;21.95;93.96;100243.06;4992285;28;20030;-68
2022/07/26 00:08:26;;;;;;;5.18;1.20;;;;;;;21.98;93.13;100244.19;4992117;28;20442;-68
2022/07/26 00:11:02;;;;;;;1.35;0.82;;;;;;;21.91;92.92;100245.16;4994128;28;20146;-68
2022/07/26 00:13:31;;;;;;;1.13;0.93;;;;;;;21.89;92.70;100239.34;4994087;28;20537;-68
2022/07/26 00:15:56;;;;;;;3.28;0.98;;;;;;;21.86;93.26;100240.25;4991251;28;20467;-68
2022/07/26 00:18:26;;;;;;;3.60;0.93;;;;;;;21.85;93.14;100246.19;4993042;28;20105;-68
2022/07/26 00:20:52;;;;;;;3.50;1.10;;;;;;;21.80;93.05;100247.50;4992926;28;20048;-68
2022/07/26 00:23:23;;;;;;;3.25;1.85;;;;;;;21.73;93.67;100249.66;4993948;28;20448;-68
2022/07/26 00:26:02;;;;;;;3.85;1.13;;;;;;;21.72;93.98;100246.16;4992753;28;20407;-67
2022/07/26 00:28:30;;;;;;;4.95;1.45;;;;;;;21.67;94.24;100248.69;4993694;28;20042;-67
2022/07/26 00:30:58;;;;;;;1.95;0.90;;;;;;;21.66;94.81;100244.44;4993814;28;20122;-67
2022/07/26 00:33:28;;;;;;;1.73;1.23;;;;;;;21.74;94.05;100243.00;5024041;28;20149;-67
2022/07/26 00:35:54;;;;;;;1.17;0.90;;;;;;;21.79;93.59;100245.94;4993154;28;20487;-67
2022/07/26 00:38:19;;;;;;;3.13;1.00;;;;;;;21.69;93.08;100251.75;5008964;28;20054;-67
2022/07/26 00:40:45;;;;;;;1.55;1.00;;;;;;;21.76;92.62;100240.56;4992962;28;20061;-67
2022/07/26 00:43:11;;;;;;;2.10;1.25;;;;;;;21.76;91.93;100240.56;4993641;28;20073;-67
2022/07/26 00:45:36;;;;;;;2.08;0.80;;;;;;;21.74;92.00;100243.00;4993074;28;20033;-67
2022/07/26 00:48:02;;;;;;;3.45;1.23;;;;;;;21.72;92.73;100245.41;4993492;28;20042;-67
2022/07/26 00:50:38;;;;;;;1.25;0.52;;;;;;;21.59;92.71;100242.66;4992491;28;20491;-67
2022/07/26 00:53:04;;;;;;;1.48;1.00;;;;;;;21.68;92.95;100252.97;4993526;28;20042;-67
2022/07/26 00:55:33;;;;;;;3.28;0.85;;;;;;;21.66;93.07;100253.41;4991672;28;20034;-67
2022/07/26 00:58:00;;;;;;;3.22;0.85;;;;;;;21.72;92.94;100253.63;4992353;28;20048;-67
2022/07/26 01:00:27;;;;;;;3.53;1.15;;;;;;;21.67;92.72;100254.94;4993257;28;20070;-67
2022/07/26 01:02:55;;;;;;;1.77;1.00;;;;;;;21.62;92.72;100254.72;4992965;28;20026;-67
2022/07/26 01:05:29;;;;;;;1.33;0.70;;;;;;;21.59;93.00;100253.63;4991855;28;20078;-67
2022/07/26 01:07:57;;;;;;;3.03;1.33;;;;;;;21.43;93.31;100257.25;5008128;28;20042;-68
2022/07/26 01:10:26;;;;;;;1.63;0.73;;;;;;;21.54;93.50;100263.16;4993214;28;20497;-67
2022/07/26 01:12:52;;;;;;;1.30;1.02;;;;;;;21.56;93.93;100251.78;4992984;28;20034;-68
2022/07/26 01:15:20;;;;;;;1.63;1.17;;;;;;;21.59;93.48;100256.38;4991913;28;20049;-67
2022/07/26 01:17:48;;;;;;;3.30;1.00;;;;;;;21.62;92.07;100250.03;4992545;28;20110;-68
2022/07/26 01:20:16;;;;;;;2.20;0.70;;;;;;;21.53;92.33;100245.19;4992802;28;20478;-68
2022/07/26 01:22:52;;;;;;;3.28;1.40;;;;;;;21.46;92.36;100248.16;4992031;28;20135;-67
2022/07/26 01:25:28;;;;;;;2.00;1.05;;;;;;;21.41;92.94;100243.22;4992300;28;20133;-67
2022/07/26 01:27:56;;;;;;;2.80;0.75;;;;;;;21.44;92.79;100245.09;4991067;28;20035;-67
2022/07/26 01:30:29;;;;;;;2.97;0.68;;;;;;;21.41;93.08;100248.69;4991312;28;20027;-67
2022/07/26 01:32:55;;;;;;;1.42;1.05;;;;;;;21.35;93.42;100241.47;4992329;28;20038;-67
2022/07/26 01:35:37;;;;;;;1.38;1.00;;;;;;;21.40;93.53;100246.41;4990931;28;20149;-67
2022/07/26 01:38:03;;;;;;;2.55;0.93;;;;;;;21.37;93.43;100245.28;4992457;28;20038;-67
2022/07/26 01:40:28;;;;;;;2.65;1.23;;;;;;;21.33;94.05;100244.63;4991766;28;20030;-67
2022/07/26 01:42:58;;;;;;;1.00;0.80;;;;;;;21.46;93.42;100239.94;4972088;28;20034;-67
2022/07/26 01:45:24;;;;;;;2.13;1.05;;;;;;;21.42;93.58;100238.50;4987315;28;20034;-67
2022/07/26 01:47:55;;;;;;;0.88;0.68;;;;;;;21.41;93.58;100245.94;4990310;28;20762;-68
2022/07/26 01:50:20;;;;;;;0.88;0.75;;;;;;;21.29;93.87;100241.22;4992381;28;20046;-67
2022/07/26 01:52:48;;;;;;;4.88;1.25;;;;;;;21.32;93.49;100245.84;4992096;28;20076;-67
2022/07/26 01:55:16;;;;;;;1.70;0.77;;;;;;;21.20;94.18;100243.06;4989391;28;20028;-67
2022/07/26 01:57:47;;;;;;;3.85;1.33;;;;;;;21.20;94.79;100243.84;4992359;28;20399;-67
2022/07/26 02:00:17;;;;;;;2.45;1.00;;;;;;;21.06;95.06;100238.03;4992197;28;20041;-67
2022/07/26 02:02:43;;;;;;;2.17;0.80;;;;;;;21.08;95.05;100236.38;4992052;28;20108;-67
2022/07/26 02:05:09;;;;;;;2.40;1.08;;;;;;;21.04;94.39;100243.94;4990435;28;20070;-67
2022/07/26 02:07:47;;;;;;;5.28;0.98;;;;;;;21.01;94.77;100242.06;4991970;28;20046;-67
2022/07/26 02:10:16;;;;;;;2.03;1.00;;;;;;;20.84;95.76;100248.81;4990800;28;20503;-67
2022/07/26 02:12:41;;;;;;;1.30;0.90;;;;;;;20.87;95.62;100241.66;5007704;23;20404;-66
2022/07/26 02:15:10;;;;;;;2.55;0.90;;;;;;;20.85;95.76;100242.09;5003948;28;20030;-65
2022/07/26 02:17:35;;;;;;;1.10;0.70;;;;;;;20.82;95.25;100243.00;5011673;28;20030;-66
2022/07/26 02:20:07;;;;;;;1.27;0.98;;;;;;;20.75;95.14;100245.91;5011759;28;20099;-66
2022/07/26 02:22:35;;;;;;;1.45;1.33;;;;;;;20.59;96.65;100240.50;4997151;28;20561;-68
2022/07/26 02:25:06;;;;;;;2.85;1.05;;;;;;;20.65;95.98;100247.00;4991257;28;20045;-66
2022/07/26 02:27:32;;;;;;;1.20;0.95;;;;;;;20.63;95.37;100247.41;4991943;28;20043;-66
2022/07/26 02:30:01;;;;;;;2.33;1.00;;;;;;;20.73;94.94;100247.56;4991803;28;20026;-66
2022/07/26 02:32:26;;;;;;;2.63;0.70;;;;;;;20.73;95.26;100247.56;4991312;28;20038;-66
2022/07/26 02:34:54;;;;;;;3.35;1.13;;;;;;;20.66;95.95;100254.78;4991083;28;20458;-66
2022/07/26 02:37:19;;;;;;;0.80;0.80;;;;;;;20.64;96.01;100257.16;4991810;28;20035;-66
2022/07/26 02:39:47;;;;;;;2.72;0.70;;;;;;;20.71;95.79;100247.22;4991871;28;20038;-66
2022/07/26 02:42:15;;;;;;;2.10;0.98;;;;;;;20.68;96.11;100251.59;4991287;28;20386;-66
2022/07/26 02:44:49;;;;;;;0.90;0.70;;;;;;;20.66;96.90;100251.25;5005894;28;20088;-67
2022/07/26 02:47:17;;;;;;;1.55;0.80;;;;;;;20.62;97.35;100254.09;4991644;28;20038;-66
2022/07/26 02:49:43;;;;;;;1.02;0.90;;;;;;;20.68;96.87;100257.06;4991328;28;20030;-66
2022/07/26 02:52:13;;;;;;;2.85;0.90;;;;;;;20.85;95.06;100258.53;4991592;28;20041;-66
2022/07/26 02:54:39;;;;;;;3.55;1.38;;;;;;;20.80;95.29;100264.56;4989946;28;20066;-66
2022/07/26 02:57:06;;;;;;;1.67;0.93;;;;;;;20.73;94.85;100259.25;4990924;28;20053;-66
2022/07/26 02:59:34;;;;;;;1.52;0.90;;;;;;;20.76;94.99;100263.09;4991325;28;20084;-66
2022/07/26 03:01:59;;;;;;;6.15;1.08;;;;;;;20.69;95.02;100264.84;4991663;28;20458;-66
2022/07/26 03:04:25;;;;;;;3.75;0.98;;;;;;;20.67;94.66;100266.50;4990448;28;20031;-66
2022/07/26 03:06:50;;;;;;;1.83;1.13;;;;;;;20.69;94.26;100258.63;4990460;28;20407;-66
2022/07/26 03:09:19;;;;;;;1.35;1.02;;;;;;;20.58;94.86;100263.59;4991676;28;20026;-66
2022/07/26 03:11:48;;;;;;;3.30;0.90;;;;;;;20.61;94.61;100266.22;4991410;28;20031;-66
2022/07/26 03:14:14;;;;;;;1.63;0.90;;;;;;;20.57;94.52;100270.28;4991348;28;20364;-66
2022/07/26 03:16:49;;;;;;;4.95;1.08;;;;;;;20.52;94.54;100266.09;4990177;28;20069;-66
2022/07/26 03:19:15;;;;;;;2.60;1.27;;;;;;;;;;4991642;28;20037;-66
2022/07/26 03:21:45;;;;;;;1.90;1.08;;;;;;;20.54;95.17;100274.63;4991207;28;20029;-66
2022/07/26 03:24:13;;;;;;;7.63;1.00;;;;;;;20.59;95.12;100270.63;4990049;28;20156;-66
2022/07/26 03:26:41;;;;;;;4.95;1.52;;;;;;;20.59;95.47;100281.56;4985567;28;20054;-66
2022/07/26 03:29:14;;;;;;;3.92;1.15;;;;;;;20.58;95.92;100280.00;4972088;28;20035;-66
2022/07/26 03:31:42;;;;;;;5.38;1.25;;;;;;;20.61;96.23;100284.63;4971875;28;20064;-66
2022/07/26 03:34:10;;;;;;;2.37;1.13;;;;;;;20.58;97.43;100282.75;4986178;28;20086;-66
2022/07/26 03:36:36;;;;;;;3.55;1.27;;;;;;;20.61;96.76;100285.38;4971084;28;20027;-66
2022/07/26 03:39:01;;;;;;;1.67;1.20;;;;;;;20.61;97.23;100271.69;4971675;28;20108;-66
2022/07/26 03:41:30;;;;;;;2.00;1.20;;;;;;;20.63;97.12;100272.03;4974105;28;20042;-66
2022/07/26 03:43:58;;;;;;;3.92;1.13;;;;;;;20.62;97.37;100286.16;4989598;28;20042;-66
2022/07/26 03:46:28;;;;;;;1.50;0.93;;;;;;;20.60;97.29;100278.38;4974371;28;20026;-66
2022/07/26 03:48:54;;;;;;;2.73;0.97;;;;;;;20.54;97.95;100285.59;4990021;28;20039;-66
2022/07/26 03:51:22;;;;;;;1.90;1.10;;;;;;;20.56;97.68;100285.16;4974705;28;20119;-66
2022/07/26 03:53:48;;;;;;;2.15;0.90;;;;;;;20.58;97.87;100286.25;4989666;28;20054;-66
2022/07/26 03:56:32;;;;;;;3.33;1.10;;;;;;;20.59;97.25;100274.13;4974667;28;20488;-66
2022/07/26 03:59:01;;;;;;;2.28;1.10;;;;;;;20.54;97.79;100282.84;4975262;28;20045;-66
2022/07/26 04:01:27;;;;;;;2.88;1.17;;;;;;;20.65;96.93;100274.38;4984947;28;20038;-66
2022/07/26 04:03:53;;;;;;;1.98;0.88;;;;;;;20.68;96.43;100281.69;4994364;28;20058;-66
2022/07/26 04:06:18;;;;;;;2.45;1.02;;;;;;;20.63;96.75;100285.72;4993522;28;20062;-66
2022/07/26 04:08:54;;;;;;;3.72;1.30;;;;;;;20.62;97.06;100276.00;4993950;28;20118;-66
2022/07/26 04:11:24;;;;;;;1.15;0.95;;;;;;;20.49;97.53;100285.34;4994130;28;20038;-66
2022/07/26 04:13:55;;;;;;;2.90;1.00;;;;;;;20.52;97.80;100290.72;4994254;28;20038;-66
2022/07/26 04:16:25;;;;;;;3.20;1.08;;;;;;;20.55;98.22;100283.63;4992453;28;20544;-66
2022/07/26 04:18:56;;;;;;;3.50;1.33;;;;;;;20.64;97.97;100289.25;4976347;28;20084;-66
2022/07/26 04:21:22;;;;;;;4.18;1.33;;;;;;;20.62;98.63;100292.41;4974629;28;20446;-66
2022/07/26 04:23:48;;;;;;;1.65;1.00;;;;;;;20.68;98.18;100292.66;4974605;28;20047;-66
2022/07/26 04:26:13;;;;;;;1.83;0.90;;;;;;;20.71;97.84;100291.81;4984294;28;20080;-66
2022/07/26 04:28:47;;;;;;;3.30;1.23;;;;;;;20.71;98.15;100300.00;4994161;28;20126;-66
2022/07/26 04:31:15;;;;;;;2.45;1.00;;;;;;;20.86;97.60;100297.66;4993791;28;20041;-66
2022/07/26 04:33:46;;;;;;;1.08;0.85;;;;;;;20.91;97.32;100299.84;4993554;28;20050;-66
2022/07/26 04:36:12;;;;;;;3.80;1.02;;;;;;;20.97;97.14;100307.09;4992615;28;20498;-66
2022/07/26 04:38:37;;;;;;;4.55;1.27;;;;;;;20.87;96.93;100307.38;4994045;28;20044;-66
2022/07/26 04:41:03;;;;;;;2.65;1.33;;;;;;;20.90;97.43;100301.06;4993870;28;20042;-66
2022/07/26 04:43:31;;;;;;;1.33;1.10;;;;;;;21.00;97.06;100306.22;4993204;28;20450;-66
2022/07/26 04:45:57;;;;;;;4.22;1.40;;;;;;;21.09;96.53;100303.66;4992845;28;20038;-66
2022/07/26 04:48:25;;;;;;;2.95;1.20;;;;;;;20.97;97.01;100304.38;4993639;28;20506;-66
2022/07/26 04:50:57;;;;;;;2.05;0.90;;;;;;;20.96;96.87;100310.28;4992318;28;20092;-66
2022/07/26 04:53:25;;;;;;;3.78;1.20;;;;;;;20.98;96.99;100307.88;4987584;28;20519;-66
2022/07/26 04:55:50;;;;;;;2.25;1.17;;;;;;;20.92;97.32;100304.91;4973336;28;20420;-66
2022/07/26 04:58:18;;;;;;;2.08;1.30;;;;;;;20.92;97.17;100298.66;4974103;28;20041;-66
2022/07/26 05:00:46;;;;;;;2.42;1.33;;;;;;;21.08;96.23;100296.63;4978265;28;20118;-66
2022/07/26 05:03:14;;;;;;;0.77;0.77;;;;;;;21.05;97.19;100305.72;4993252;28;20133;-66
2022/07/26 05:05:42;;;;;;;1.42;1.30;;;;;;;20.95;97.20;100306.78;4991490;28;20423;-66
2022/07/26 05:08:13;;;;;;;1.77;1.40;;;;;;;21.03;97.76;100304.63;4993200;28;20050;-65
2022/07/26 05:10:39;;;;;;;1.48;0.88;;;;;;;21.13;96.67;100307.06;4992636;28;20034;-66
2022/07/26 05:13:09;;;;;;;1.67;0.88;;;;;;;21.17;96.93;100310.47;4991834;28;20652;-66
2022/07/26 05:15:39;;;;;;;2.45;1.10;;;;;;;21.18;96.36;100306.53;4992256;28;20380;-66
2022/07/26 05:18:07;;;;;;;4.68;1.55;;;;;;;21.16;97.18;100303.47;5006850;28;20061;-66
2022/07/26 05:20:33;;;;;;;2.60;1.40;;;;;;;21.17;97.49;100305.00;4992925;28;20487;-66
2022/07/26 05:23:01;;;;;;;4.30;1.52;;;;;;;21.22;96.82;100312.69;4992782;28;20402;-66
2022/07/26 05:25:26;;;;;;;2.30;1.10;;;;;;;21.28;96.49;100310.94;4991645;28;20448;-66
2022/07/26 05:27:54;;;;;;;2.05;1.30;;;;;;;21.21;97.24;100315.84;4992811;28;20121;-66
2022/07/26 05:30:23;;;;;;;5.38;1.27;;;;;;;21.25;97.17;100306.31;4991608;28;20050;-66
2022/07/26 05:32:50;;;;;;;2.20;1.50;;;;;;;21.34;96.99;100317.41;4992719;28;20080;-66
2022/07/26 05:35:16;;;;;;;2.10;1.10;;;;;;;21.32;97.33;100311.59;4993542;28;20519;-66
2022/07/26 05:37:42;;;;;;;3.72;1.40;;;;;;;21.31;97.76;100312.78;4992794;28;20042;-65
2022/07/26 05:40:10;;;;;;;5.57;1.40;;;;;;;21.24;97.92;100314.97;4992752;28;20050;-65
2022/07/26 05:42:37;;;;;;;5.47;1.33;;;;;;;21.26;97.89;100321.56;4992631;28;20113;-66
2022/07/26 05:45:12;;;;;;;2.40;1.58;;;;;;;21.38;96.68;100325.53;4991318;28;20717;-66
2022/07/26 05:47:37;;;;;;;5.70;1.50;;;;;;;21.31;97.11;100321.00;4992405;28;20121;-66
2022/07/26 05:50:04;;;;;;;2.67;1.50;;;;;;;21.36;97.19;100317.75;4992259;28;20141;-66
2022/07/26 05:52:30;;;;;;;1.88;1.20;;;;;;;21.35;96.97;100320.94;4991901;28;20467;-66
2022/07/26 05:55:00;;;;;;;2.22;1.27;;;;;;;21.22;97.78;100333.81;4991737;28;20066;-66
2022/07/26 05:57:26;;;;;;;2.08;1.25;;;;;;;21.27;98.13;100325.09;4992523;28;20041;-66
2022/07/26 05:59:51;;;;;;;3.60;1.67;;;;;;;21.35;97.56;100342.84;4991992;28;20026;-66
2022/07/26 06:02:17;;;;;;;2.03;1.30;;;;;;;21.45;96.96;100352.72;4990980;28;20050;-66
2022/07/26 06:05:01;;;;;;;4.32;1.25;;;;;;;21.43;96.53;100361.38;4989930;28;20053;-66
2022/07/26 06:07:27;;;;;;;2.65;1.05;;;;;;;21.22;98.44;100370.22;4991782;28;20038;-66
2022/07/26 06:09:52;;;;;;;1.35;0.95;;;;;;;21.13;98.04;100359.13;4991864;28;20030;-66
2022/07/26 06:12:18;;;;;;;2.00;1.35;;;;;;;21.03;98.33;100351.19;4991990;28;20045;-66
2022/07/26 06:14:46;;;;;;;1.10;0.60;;;;;;;20.99;98.25;100354.00;4991746;28;20038;-66
2022/07/26 06:17:17;;;;;;;;;;;;;;;20.97;98.39;100355.63;4992416;28;20038;-67
2022/07/26 06:19:46;;;;;;;1.20;0.80;;;;;;;20.80;99.20;100363.13;4991483;28;19918;-66
2022/07/26 06:22:14;;;;;;;2.67;0.68;;;;;;;20.92;99.06;100369.84;4990634;28;20037;-67
2022/07/26 06:24:39;;;;;;;1.63;0.85;;;;;;;20.91;99.54;100369.06;4990240;28;20145;-67
2022/07/26 06:27:05;;;;;;;2.15;1.00;;;;;;;20.96;100.00;100370.53;4989688;28;20097;-68
2022/07/26 06:29:32;;;;;;;1.08;0.70;;;;;;;21.10;99.23;100370.19;4990785;28;20121;-66
2022/07/26 06:32:03;;;;;;;3.92;1.10;;;;;;;21.11;99.74;100371.72;4991721;28;20136;-66
2022/07/26 06:34:29;;;;;;;1.48;1.13;;;;;;;21.18;99.92;100377.75;4991782;28;20034;-67
2022/07/26 06:37:05;;;;;;;1.55;0.95;;;;;;;21.24;99.31;100376.03;4990559;28;20034;-67
2022/07/26 06:39:35;;;;;;;1.00;0.85;;;;;;;21.32;99.21;100382.84;4992129;28;20101;-67
2022/07/26 06:42:00;;;;;;;1.67;1.15;;;;;;;21.38;99.44;100381.13;4991780;28;20066;-67
2022/07/26 06:44:32;;;;;;;1.95;0.98;;;;;;;21.51;99.64;100381.13;4991235;28;20619;-67
2022/07/26 06:46:58;;;;;;;1.47;0.97;;;;;;;21.65;99.75;100382.69;4990846;28;20038;-67
2022/07/26 06:49:25;;;;;;;2.42;0.82;;;;;;;21.73;99.71;100379.31;4991679;28;20034;-68
2022/07/26 06:51:56;;;;;;;2.55;1.33;;;;;;;21.82;99.10;100378.69;4991159;28;20038;-67
2022/07/26 06:54:25;;;;;;;1.50;1.02;;;;;;;21.86;98.50;100387.56;5006911;28;20039;-67
2022/07/26 06:56:53;;;;;;;2.47;1.65;;;;;;;21.87;98.19;100381.66;4990855;28;20041;-67
2022/07/26 06:59:23;;;;;;;0.90;0.77;;;;;;;22.01;97.90;100396.94;4991192;28;20045;-66
2022/07/26 07:01:51;;;;;;;1.00;0.68;;;;;;;22.08;97.16;100394.72;4991458;28;20042;-66
2022/07/26 07:04:16;;;;;;;1.13;0.70;;;;;;;22.14;96.78;100400.44;4991515;28;20510;-66
2022/07/26 07:06:44;;;;;;;2.28;0.82;;;;;;;22.13;96.70;100393.41;4990698;28;20039;-66
2022/07/26 07:09:13;;;;;;;2.95;0.65;;;;;;;22.21;97.17;100391.97;4990878;28;20045;-66
2022/07/26 07:11:51;;;;;;;3.78;0.95;;;;;;;22.36;96.63;100393.03;4991521;28;20084;-66
2022/07/26 07:14:16;;;;;;;2.58;0.65;;;;;;;22.40;95.86;100393.69;4991564;28;20042;-66
2022/07/26 07:16:44;;;;;;;1.08;0.45;;;;;;;22.24;94.91;100397.34;4993679;28;20153;-66
2022/07/26 07:19:17;;;;;;;1.38;0.57;;;;;;;22.01;94.96;100408.66;4994661;28;20049;-66
2022/07/26 07:21:43;;;;;;;1.80;0.60;;;;;;;22.06;94.59;100418.31;4993846;28;20676;-66
2022/07/26 07:24:08;;;;;;;1.05;0.40;;;;;;;22.01;93.84;100410.63;4995084;28;20080;-66
2022/07/26 07:26:42;;;;;;;1.52;0.47;;;;;;;21.91;94.21;100436.41;4993824;28;20057;-66
2022/07/26 07:29:13;;;;;;;0.40;0.30;;;;;;;21.84;93.62;100439.34;4995159;28;20045;-66
2022/07/26 07:31:41;;;;;;;;;;;;;;;21.70;93.92;100437.00;4993803;28;20495;-66
2022/07/26 07:34:21;;;;;;;0.47;0.40;;;;;;;21.65;94.61;100448.50;4993884;28;20279;-67
2022/07/26 07:36:52;;;;;;;0.63;0.43;;;;;;;21.53;95.20;100455.47;4999181;28;20480;-67
2022/07/26 07:39:18;;;;;;;0.55;0.45;;;;;;;21.50;96.88;100440.66;4994768;28;20208;-66
2022/07/26 07:41:47;;;;;;;0.28;0.28;;;;;;;21.61;95.89;100459.56;4994933;28;20100;-67
2022/07/26 07:44:13;;;;;;;0.43;0.30;;;;;;;21.66;95.99;100455.53;4994408;28;20392;-67
2022/07/26 07:46:44;;;;;;;0.60;0.47;;;;;;;21.79;95.46;100467.28;4993391;28;20042;-67
2022/07/26 07:49:14;;;;;;;0.45;0.30;;;;;;;21.86;95.65;100469.84;4994758;28;20121;-67
2022/07/26 07:51:42;;;;;;;0.30;0.30;;;;;;;22.06;94.80;100476.69;4994658;28;20590;-67
2022/07/26 07:54:10;;;;;;;1.40;0.28;;;;;;;22.19;93.38;100473.97;4993343;28;20038;-66
2022/07/26 07:56:38;;;;;;;0.55;0.40;;;;;;;22.25;93.72;100480.44;4988737;28;20746;-66
2022/07/26 07:59:04;;;;;;;0.43;0.35;;;;;;;22.38;92.05;100467.47;4975292;28;20125;-66
2022/07/26 08:01:29;;;;;;;1.48;0.40;;;;;;;22.44;91.85;100476.72;4974821;28;20481;-66
2022/07/26 08:03:55;;;;;;;0.30;0.30;;;;;;;22.63;91.37;100475.75;4981467;28;20031;-66
2022/07/26 08:06:20;;;;;;;0.35;0.20;;;;;;;22.68;91.25;100485.41;4993606;28;20422;-66
2022/07/26 08:08:46;;;;;;;0.50;0.30;;;;;;;22.71;90.24;100495.50;4994522;28;20041;-66
2022/07/26 08:11:11;;;;;;;1.17;0.38;;;;;;;22.63;89.28;100496.97;4992984;28;20037;-66
2022/07/26 08:13:39;;;;;;;0.55;0.15;;;;;;;22.40;88.87;100501.53;5008732;23;20038;-67
2022/07/26 08:16:09;;;;;;;0.20;0.10;;;;;;;22.17;87.53;100512.03;5013712;28;20072;-67
2022/07/26 08:18:35;;;;;;;0.30;0.20;;;;;;;21.96;89.18;100507.19;5032333;28;20044;-67
2022/07/26 08:21:02;;;;;;;0.77;0.17;;;;;;;21.82;90.49;100508.34;5033511;28;20024;-68
2022/07/26 08:23:30;;;;;;;0.63;0.30;;;;;;;21.90;91.57;100509.69;5013350;28;20084;-68
2022/07/26 08:25:57;;;;;;;0.30;0.05;;;;;;;21.94;92.36;100512.31;5012602;28;20057;-67
2022/07/26 08:28:23;;;;;;;0.03;0.03;;;;;;;22.14;93.00;100512.94;5013707;28;20041;-67
2022/07/26 08:30:51;;;;;;;1.48;0.38;;;;;;;22.50;93.02;100512.63;5003777;28;20038;-67
2022/07/26 08:33:17;;;;;;;1.00;0.10;;;;;;;22.83;91.31;100517.47;4994009;28;20502;-67
2022/07/26 08:35:47;;;;;;;1.13;0.28;;;;;;;23.13;91.64;100522.34;4993144;28;20045;-67
2022/07/26 08:38:13;;;;;;;0.40;0.20;;;;;;;23.43;89.61;100528.47;4993361;28;20058;-67
2022/07/26 08:40:48;;;;;;;2.90;0.20;;;;;;;23.68;88.95;100526.38;4992434;28;20073;-67
2022/07/26 08:43:16;;;;;;;0.15;0.10;;;;;;;23.87;86.13;100527.28;4993791;28;20157;-67
2022/07/26 08:45:41;;;;;;;1.80;0.20;;;;;;;23.98;84.82;100525.66;4992393;28;20037;-66
2022/07/26 08:48:07;;;;;;;0.75;0.28;;;;;;;24.18;83.82;100536.38;4993453;28;20026;-67
2022/07/26 08:50:39;;;;;;;0.10;0.10;;;;;;;24.33;82.58;100533.84;4993740;28;20050;-67
2022/07/26 08:53:11;;;;;;;0.10;0.10;;;;;;;24.53;82.55;100542.50;4993670;28;20065;-67
2022/07/26 08:55:37;;;;;;;3.08;0.25;;;;;;;24.79;79.68;100549.38;4997074;28;20030;-66
2022/07/26 08:58:18;;;;;;;0.25;0.05;;;;;;;24.97;77.13;100549.44;5012898;28;20117;-67
2022/07/26 09:01:01;;;;;;;0.50;0.10;;;;;;;24.80;77.54;100573.72;5011797;28;20069;-66
2022/07/26 09:03:30;;;;;;;0.28;0.15;;;;;;;24.68;77.24;100558.03;5010802;28;20026;-67
2022/07/26 09:05:59;;;;;;;2.10;0.30;;;;;;;24.51;76.46;100570.50;4991930;28;20050;-68
2022/07/26 09:08:30;;;;;;;1.45;0.10;;;;;;;24.37;77.81;100573.06;4991583;28;20022;-68
2022/07/26 09:10:58;;;;;;;;;;;;;;;24.39;78.25;100576.88;4992186;28;20135;-68
2022/07/26 09:13:27;;;;;;;0.10;0.10;;;;;;;24.59;76.17;100588.31;4973688;28;19961;-68
2022/07/26 09:16:18;;;;;;;0.73;0.13;;;;;;;24.78;78.26;100584.44;4973123;28;20039;-68
2022/07/26 09:18:44;;;;;;;0.20;0.08;;;;;;;25.03;75.42;100586.19;4955085;28;20170;-68
2022/07/26 09:21:32;;;;;;;0.52;0.17;;;;;;;25.05;71.98;100584.53;5007580;28;20061;-68
2022/07/26 09:23:59;;;;;;;0.22;0.00;;;;;;;25.22;71.18;100593.31;5012530;28;20037;-68
2022/07/26 09:26:30;;;;;;;0.00;0.00;;;;;;;25.20;70.04;100600.50;5011793;28;20049;-68
2022/07/26 09:29:04;;;;;;;2.55;0.10;;;;;;;25.03;69.97;100603.50;4995020;28;20044;-68
2022/07/26 09:31:32;;;;;;;0.52;0.45;;;;;;;24.73;70.52;100615.34;4992586;28;20030;-68
2022/07/26 09:34:06;;;;;;;0.38;0.22;;;;;;;24.41;70.43;100612.25;5010278;28;20447;-68
2022/07/26 09:36:32;;;;;;;1.05;0.20;;;;;;;24.17;70.76;100623.72;5003629;28;20105;-68
2022/07/26 09:39:03;;;;;;;0.10;0.00;;;;;;;24.41;69.08;100629.50;4972930;28;20223;-68
2022/07/26 09:41:35;;;;;;;0.10;0.10;;;;;;;24.48;69.93;100632.03;4972925;28;20527;-68
2022/07/26 09:44:04;;;;;;;0.57;0.10;;;;;;;24.52;70.05;100635.41;4973240;28;20031;-68
2022/07/26 09:46:34;;;;;;;0.28;0.13;;;;;;;24.24;72.69;100650.22;4991038;28;20438;-68
2022/07/26 09:49:20;;;;;;;0.82;0.08;;;;;;;24.15;72.19;100645.41;4992610;28;20073;-68
2022/07/26 09:51:50;;;;;;;0.20;0.20;;;;;;;24.29;72.51;100646.91;4992180;28;20050;-68
2022/07/26 09:54:19;;;;;;;0.30;0.10;;;;;;;24.50;73.06;100648.09;5006488;28;20541;-68
2022/07/26 09:56:50;;;;;;;0.10;0.10;;;;;;;24.74;72.28;100647.19;4991708;28;20448;-68
2022/07/26 09:59:18;;;;;;;0.88;0.20;;;;;;;25.11;70.41;100648.09;4992335;28;20070;-68
2022/07/26 10:01:48;;;;;;;0.20;0.10;;;;;;;25.36;68.97;100649.91;4991517;28;20092;-68
2022/07/26 10:04:14;;;;;;;0.00;0.00;;;;;;;25.27;66.99;100655.38;4992472;28;20034;-68
2022/07/26 10:06:42;;;;;;;0.88;0.22;;;;;;;25.53;66.52;100651.19;4990044;28;20042;-65
2022/07/26 10:09:11;;;;;;;;;;;;;;;25.70;64.85;100655.19;4992171;28;20089;-68
2022/07/26 10:12:07;;;;;;;0.38;0.10;;;;;;;25.56;62.93;100664.06;4991969;28;20306;-68
2022/07/26 10:14:46;;;;;;;0.10;0.10;;;;;;;25.68;63.38;100669.47;4992263;28;20038;-68
2022/07/26 10:17:31;;;;;;;0.00;0.00;;;;;;;26.09;62.38;100670.91;4992173;28;20030;-68
2022/07/26 10:20:05;;;;;;;0.08;0.08;;;;;;;26.44;59.22;100665.81;4990073;28;20030;-68
2022/07/26 10:22:50;;;;;;;0.20;0.10;;;;;;;26.75;56.75;100663.63;4992198;28;20034;-68
2022/07/26 10:25:23;;;;;;;0.10;0.10;;;;;;;26.72;58.06;100661.78;4991005;28;20057;-68
2022/07/26 10:27:56;;;;;;;0.80;0.30;;;;;;;26.69;58.08;100663.44;4990185;28;20038;-68
2022/07/26 10:30:26;;;;;;;0.52;0.10;;;;;;;26.59;56.56;100667.47;4990966;28;20038;-68
2022/07/26 10:33:00;;;;;;;3.67;0.30;;;;;;;26.72;56.61;100679.13;4991893;28;20042;-68
2022/07/26 10:35:30;;;;;;;0.03;0.00;;;;;;;26.92;56.29;100659.25;4989221;28;20511;-68
2022/07/26 10:37:58;;;;;;;2.25;0.10;;;;;;;27.10;56.55;100664.69;4991827;28;20052;-68
2022/07/26 10:40:33;;;;;;;4.22;0.30;;;;;;;27.63;54.64;100673.22;4991983;28;20053;-68
2022/07/26 10:43:18;;;;;;;0.57;0.03;;;;;;;27.85;52.30;100670.91;4990071;28;20046;-68
2022/07/26 10:45:46;;;;;;;0.10;0.10;;;;;;;28.10;51.88;100678.75;4991106;28;20057;-68
2022/07/26 10:48:19;;;;;;;0.35;0.25;;;;;;;28.19;52.40;100686.19;4991566;28;20030;-68
2022/07/26 10:50:47;;;;;;;0.60;0.20;;;;;;;28.02;52.15;100680.34;4992890;28;20046;-68
2022/07/26 10:53:25;;;;;;;0.40;0.20;;;;;;;27.76;53.39;100687.56;4996007;28;20038;-68
2022/07/26 10:55:57;;;;;;;0.37;0.10;;;;;;;27.40;53.39;100691.34;4994983;28;20049;-68
2022/07/26 10:58:41;;;;;;;1.58;0.40;;;;;;;27.24;52.49;100690.91;4995962;28;20038;-68
2022/07/26 11:01:09;;;;;;;0.38;0.20;;;;;;;27.22;51.21;100698.91;4995159;28;20038;-68
2022/07/26 11:03:52;;;;;;;0.80;0.50;;;;;;;27.34;51.92;100695.22;4995604;28;20033;-69
2022/07/26 11:06:18;;;;;;;0.10;0.00;;;;;;;27.65;51.76;100687.34;4993817;28;20432;-68
2022/07/26 11:08:50;;;;;;;0.30;0.10;;;;;;;28.00;48.89;100699.44;4995135;28;20630;-68
2022/07/26 11:11:28;;;;;;;0.55;0.20;;;;;;;28.12;46.69;100706.75;4994895;28;20046;-68
2022/07/26 11:14:06;;;;;;;0.47;0.10;;;;;;;28.10;46.90;100712.00;4995398;28;20085;-68
2022/07/26 11:16:40;;;;;;;0.47;0.17;;;;;;;28.02;46.87;100710.81;5009341;28;20038;-68
2022/07/26 11:19:26;;;;;;;0.70;0.10;;;;;;;28.28;47.30;100714.59;4976027;28;20046;-68
2022/07/26 11:22:00;;;;;;;0.17;0.10;;;;;;;28.48;46.72;100723.06;4975930;28;20066;-68
2022/07/26 11:24:27;;;;;;;0.10;0.00;;;;;;;28.35;45.36;100719.03;4975737;28;20081;-68
2022/07/26 11:26:53;;;;;;;0.20;0.10;;;;;;;27.96;45.20;100721.03;4986754;28;20019;-68
2022/07/26 11:29:27;;;;;;;0.88;0.00;;;;;;;27.81;46.62;100706.31;4995259;28;20038;-68
2022/07/26 11:31:54;;;;;;;1.10;0.30;;;;;;;27.89;47.50;100720.59;4994912;28;20084;-68
2022/07/26 11:34:37;;;;;;;0.20;0.10;;;;;;;28.20;47.53;100723.78;4995209;28;20064;-68
2022/07/26 11:37:04;;;;;;;0.40;0.20;;;;;;;28.35;45.54;100735.66;4975303;28;20035;-68